createdAt,value
2018-01-14T00:02:04.992Z,61.80
2018-01-14T00:04:32.983Z,61.90
2018-01-14T00:07:01.760Z,62.40
2018-01-14T00:09:29.780Z,62.40
2018-01-14T00:11:57.773Z,61.50
2018-01-14T00:14:26.555Z,60.70
2018-01-14T00:16:54.567Z,60.60
2018-01-14T00:19:22.559Z,61.70
2018-01-14T00:21:50.562Z,61.90
2018-01-14T00:24:18.589Z,61.80
2018-01-14T00:26:46.589Z,61.90
2018-01-14T00:29:15.356Z,61.30
2018-01-14T00:31:43.356Z,61.30
2018-01-14T00:34:11.359Z,61.20
2018-01-14T00:36:40.131Z,60.70
2018-01-14T00:39:08.131Z,60.60
2018-01-14T00:41:36.887Z,60.80
2018-01-14T00:44:04.893Z,60.70
2018-01-14T00:46:32.896Z,61.80
2018-01-14T00:49:00.874Z,60.60
2018-01-14T00:51:29.701Z,61.60
2018-01-14T00:53:57.668Z,61.40
2018-01-14T00:56:26.423Z,60.40
2018-01-14T00:58:54.443Z,60.30
2018-01-14T01:01:23.215Z,60.70
2018-01-14T01:03:51.207Z,60.70
2018-01-14T01:06:19.215Z,60.40
2018-01-14T01:08:47.992Z,59.50
2018-01-14T01:11:15.972Z,59.50
2018-01-14T01:13:43.996Z,59.80
2018-01-14T01:16:12.001Z,59.40
2018-01-14T01:18:39.987Z,59.70
2018-01-14T01:21:08.004Z,59.40
2018-01-14T01:23:36.007Z,60.90
2018-01-14T01:26:04.023Z,59.80
2018-01-14T01:28:32.022Z,59.40
2018-01-14T01:31:00.022Z,59.40
2018-01-14T01:33:28.011Z,59.70
2018-01-14T01:35:56.016Z,59.50
2018-01-14T01:38:24.028Z,59.60
2018-01-14T01:40:52.011Z,59.40
2018-01-14T01:43:20.023Z,59.90
2018-01-14T01:45:48.036Z,59.80
2018-01-14T01:48:16.020Z,60.40
2018-01-14T01:50:44.039Z,59.30
2018-01-14T01:53:12.048Z,60.50
2018-01-14T01:55:40.036Z,59.80
2018-01-14T01:58:08.116Z,58.80
2018-01-14T02:00:36.185Z,58.80
2018-01-14T02:03:04.224Z,59.20
2018-01-14T02:05:32.266Z,60.00
2018-01-14T02:08:00.320Z,60.60
2018-01-14T02:10:29.122Z,59.40
2018-01-14T02:12:57.945Z,60.20
2018-01-14T02:15:25.993Z,60.00
2018-01-14T02:17:54.031Z,58.90
2018-01-14T02:20:22.088Z,59.00
2018-01-14T02:22:50.147Z,58.10
2018-01-14T02:25:18.192Z,59.40
2018-01-14T02:27:46.264Z,59.20
2018-01-14T02:30:14.300Z,58.90
2018-01-14T02:32:43.100Z,59.80
2018-01-14T02:35:11.166Z,59.80
2018-01-14T02:37:39.221Z,58.50
2018-01-14T02:40:07.276Z,60.20
2018-01-14T02:42:35.308Z,60.10
2018-01-14T02:45:03.356Z,59.50
2018-01-14T02:47:31.418Z,59.00
2018-01-14T02:49:59.444Z,58.90
2018-01-14T02:52:27.508Z,58.00
2018-01-14T02:54:55.569Z,59.70
2018-01-14T02:57:24.368Z,58.10
2018-01-14T02:59:53.180Z,59.40
2018-01-14T03:02:21.240Z,59.40
2018-01-14T03:04:49.279Z,60.00
2018-01-14T03:07:17.346Z,60.50
2018-01-14T03:09:45.403Z,59.10
2018-01-14T03:12:14.217Z,59.60
2018-01-14T03:14:42.284Z,59.60
2018-01-14T03:17:11.100Z,59.50
2018-01-14T03:19:39.148Z,59.40
2018-01-14T03:22:08.715Z,59.00
2018-01-14T03:24:36.786Z,59.00
2018-01-14T03:27:04.816Z,59.50
2018-01-14T03:29:32.877Z,60.40
2018-01-14T03:32:00.910Z,59.20
2018-01-14T03:34:28.963Z,59.10
2018-01-14T03:36:57.006Z,59.20
2018-01-14T03:39:25.051Z,59.80
2018-01-14T03:41:53.133Z,59.80
2018-01-14T03:44:21.197Z,60.40
2018-01-14T03:46:49.227Z,61.20
2018-01-14T03:49:18.054Z,60.60
2018-01-14T03:51:46.108Z,60.50
2018-01-14T03:54:14.916Z,60.80
2018-01-14T03:56:43.728Z,60.00
2018-01-14T03:59:12.557Z,60.20
2018-01-14T04:01:40.584Z,60.20
2018-01-14T04:04:08.657Z,62.00
2018-01-14T04:06:36.709Z,62.00
2018-01-14T04:09:04.767Z,60.60
2018-01-14T04:11:32.824Z,61.20
2018-01-14T04:14:00.876Z,61.60
2018-01-14T04:16:28.935Z,61.80
2018-01-14T04:18:57.017Z,62.10
2018-01-14T04:21:25.053Z,62.40
2018-01-14T04:23:53.100Z,62.50
2018-01-14T04:26:21.149Z,63.10
2018-01-14T04:28:49.951Z,64.80
2018-01-14T04:31:18.774Z,64.40
2018-01-14T04:33:46.828Z,64.30
2018-01-14T04:36:15.624Z,64.40
2018-01-14T04:38:44.440Z,63.40
2018-01-14T04:41:13.235Z,64.90
2018-01-14T04:43:42.065Z,65.20
2018-01-14T04:46:10.114Z,65.20
2018-01-14T04:48:38.924Z,63.00
2018-01-14T04:51:06.992Z,63.00
2018-01-14T04:53:35.048Z,66.00
2018-01-14T04:56:03.064Z,64.60
2018-01-14T04:58:31.884Z,65.10
2018-01-14T05:00:59.932Z,65.00
2018-01-14T05:03:27.960Z,64.90
2018-01-14T05:05:56.032Z,65.30
2018-01-14T05:08:24.858Z,64.00
2018-01-14T05:10:52.888Z,64.60
2018-01-14T05:13:20.954Z,64.90
2018-01-14T05:15:49.008Z,65.30
2018-01-14T05:18:17.028Z,65.30
2018-01-14T05:20:45.072Z,65.30
2018-01-14T05:23:13.124Z,65.70
2018-01-14T05:25:41.936Z,66.60
2018-01-14T05:28:10.777Z,66.00
2018-01-14T05:30:38.824Z,66.00
2018-01-14T05:33:06.868Z,65.30
2018-01-14T05:35:34.992Z,66.20
2018-01-14T05:38:03.800Z,66.40
2018-01-14T05:40:31.821Z,66.40
2018-01-14T05:42:59.871Z,66.20
2018-01-14T05:45:27.924Z,66.50
2018-01-14T05:47:56.724Z,67.90
2018-01-14T05:50:24.783Z,67.10
2018-01-14T05:52:52.836Z,67.90
2018-01-14T05:55:20.868Z,68.40
2018-01-14T05:57:48.928Z,68.00
2018-01-14T06:00:16.992Z,68.00
2018-01-14T06:02:45.017Z,68.10
2018-01-14T06:05:13.068Z,67.60
2018-01-14T06:07:41.120Z,67.30
2018-01-14T06:10:09.252Z,68.20
2018-01-14T06:12:37.312Z,68.10
2018-01-14T06:15:05.357Z,68.20
2018-01-14T06:17:34.188Z,68.40
2018-01-14T06:20:02.228Z,68.40
2018-01-14T06:22:30.276Z,68.80
2018-01-14T06:24:58.304Z,69.10
2018-01-14T06:27:27.120Z,68.40
2018-01-14T06:29:55.946Z,67.70
2018-01-14T06:32:23.968Z,67.60
2018-01-14T06:34:52.029Z,68.20
2018-01-14T06:37:20.076Z,67.20
2018-01-14T06:39:49.792Z,69.10
2018-01-14T06:42:18.612Z,68.70
2018-01-14T06:44:46.680Z,68.60
2018-01-14T06:47:14.716Z,69.30
2018-01-14T06:49:42.761Z,69.20
2018-01-14T06:52:10.789Z,68.90
2018-01-14T06:54:38.843Z,69.00
2018-01-14T06:57:06.896Z,69.80
2018-01-14T06:59:35.696Z,69.70
2018-01-14T07:02:04.507Z,69.30
2018-01-14T07:04:33.315Z,69.30
2018-01-14T07:07:01.356Z,69.30
2018-01-14T07:09:29.404Z,69.30
2018-01-14T07:11:57.457Z,69.30
2018-01-14T07:14:25.842Z,69.90
2018-01-14T07:16:54.652Z,69.60
2018-01-14T07:19:23.477Z,70.10
2018-01-14T07:21:51.521Z,70.00
2018-01-14T07:24:20.387Z,69.80
2018-01-14T07:26:48.405Z,69.70
2018-01-14T07:29:17.208Z,69.30
2018-01-14T07:31:46.028Z,69.50
2018-01-14T07:34:14.848Z,69.00
2018-01-14T07:36:42.892Z,69.00
2018-01-14T07:39:10.939Z,69.10
2018-01-14T07:41:38.988Z,68.60
2018-01-14T07:44:07.028Z,68.40
2018-01-14T07:46:36.589Z,66.90
2018-01-14T07:49:04.641Z,66.90
2018-01-14T07:51:32.676Z,67.70
2018-01-14T07:54:00.724Z,67.90
2018-01-14T07:56:29.538Z,67.40
2018-01-14T07:58:57.579Z,67.30
2018-01-14T08:01:25.643Z,67.30
2018-01-14T08:03:53.752Z,67.90
2018-01-14T08:06:21.788Z,68.20
2018-01-14T08:08:49.856Z,67.50
2018-01-14T08:11:18.781Z,67.20
2018-01-14T08:13:46.820Z,67.20
2018-01-14T08:16:15.636Z,68.00
2018-01-14T08:18:44.460Z,67.00
2018-01-14T08:21:12.496Z,66.90
2018-01-14T08:23:40.553Z,66.60
2018-01-14T08:26:08.640Z,66.40
2018-01-14T08:28:36.677Z,66.00
2018-01-14T08:31:05.500Z,67.10
2018-01-14T08:33:33.549Z,67.80
2018-01-14T08:36:01.612Z,66.10
2018-01-14T08:38:29.677Z,65.10
2018-01-14T08:40:57.745Z,65.10
2018-01-14T08:43:25.788Z,65.50
2018-01-14T08:45:53.848Z,64.90
2018-01-14T08:48:21.877Z,64.50
2018-01-14T08:50:49.971Z,64.90
2018-01-14T08:53:18.024Z,64.80
2018-01-14T08:55:46.817Z,65.50
2018-01-14T08:58:14.869Z,64.70
2018-01-14T09:00:42.922Z,64.40
2018-01-14T09:03:10.968Z,64.60
2018-01-14T09:05:39.024Z,65.00
2018-01-14T09:08:07.072Z,65.30
2018-01-14T09:10:35.145Z,65.30
2018-01-14T09:13:03.224Z,66.00
2018-01-14T09:15:32.040Z,64.30
2018-01-14T09:18:00.104Z,64.20
2018-01-14T09:20:28.930Z,64.50
2018-01-14T09:22:56.954Z,64.40
2018-01-14T09:25:25.013Z,64.60
2018-01-14T09:27:53.263Z,62.90
2018-01-14T09:30:33.219Z,63.10
2018-01-14T09:33:02.156Z,62.70
2018-01-14T09:35:30.188Z,62.00
2018-01-14T09:37:59.748Z,62.50
2018-01-14T09:40:27.807Z,62.40
2018-01-14T09:42:55.856Z,63.30
2018-01-14T09:45:24.839Z,59.70
2018-01-14T09:47:52.894Z,59.70
2018-01-14T09:50:21.692Z,60.90
2018-01-14T09:52:50.494Z,60.70
2018-01-14T09:55:19.292Z,62.20
2018-01-14T09:57:48.096Z,61.30
2018-01-14T10:00:16.929Z,60.20
2018-01-14T10:02:44.960Z,60.10
2018-01-14T10:05:13.016Z,59.30
2018-01-14T10:07:41.083Z,59.60
2018-01-14T10:10:09.116Z,59.00
2018-01-14T10:12:37.159Z,61.70
2018-01-14T10:15:05.204Z,59.40
2018-01-14T10:17:33.236Z,61.00
2018-01-14T10:20:01.286Z,59.60
2018-01-14T10:22:29.628Z,60.00
2018-01-14T10:24:58.576Z,59.00
2018-01-14T10:27:26.632Z,58.50
2018-01-14T10:29:54.682Z,59.40
2018-01-14T10:32:22.712Z,57.90
2018-01-14T10:34:51.515Z,58.10
2018-01-14T10:37:20.329Z,58.30
2018-01-14T10:39:48.360Z,58.30
2018-01-14T10:42:16.432Z,58.10
2018-01-14T10:44:44.488Z,58.30
2018-01-14T10:47:12.524Z,57.30
2018-01-14T10:49:42.114Z,56.80
2018-01-14T10:52:10.161Z,56.80
2018-01-14T10:54:39.084Z,56.50
2018-01-14T10:57:07.148Z,56.40
2018-01-14T10:59:35.968Z,57.30
2018-01-14T11:02:04.011Z,56.90
2018-01-14T11:04:32.056Z,56.30
2018-01-14T11:07:00.336Z,58.30
2018-01-14T11:09:29.167Z,56.10
2018-01-14T11:11:57.217Z,55.40
2018-01-14T11:14:25.283Z,56.70
2018-01-14T11:16:53.320Z,55.50
2018-01-14T11:19:21.369Z,54.80
2018-01-14T11:21:49.418Z,54.80
2018-01-14T11:24:18.213Z,53.70
2018-01-14T11:26:46.269Z,53.70
2018-01-14T11:29:26.360Z,54.40
2018-01-14T11:31:54.421Z,54.30
2018-01-14T11:34:22.516Z,55.70
2018-01-14T11:36:50.540Z,54.80
2018-01-14T11:39:18.580Z,53.20
2018-01-14T11:41:46.659Z,54.10
2018-01-14T11:44:14.684Z,53.60
2018-01-14T11:46:43.509Z,52.40
2018-01-14T11:49:11.548Z,52.40
2018-01-14T11:51:39.577Z,51.90
2018-01-14T11:54:07.624Z,53.10
2018-01-14T11:56:36.449Z,51.30
2018-01-14T11:59:05.224Z,50.50
2018-01-14T12:01:34.036Z,50.60
2018-01-14T12:04:02.852Z,49.00
2018-01-14T12:06:30.874Z,48.80
2018-01-14T12:08:59.684Z,47.70
2018-01-14T12:11:27.743Z,47.30
2018-01-14T12:13:55.773Z,47.20
2018-01-14T12:16:23.811Z,46.10
2018-01-14T12:18:51.872Z,46.00
2018-01-14T12:21:19.913Z,47.10
2018-01-14T12:23:47.953Z,46.10
2018-01-14T12:26:15.996Z,45.10
2018-01-14T12:28:44.793Z,46.90
2018-01-14T12:31:12.848Z,46.70
2018-01-14T12:36:46.495Z,46.00
2018-01-14T12:39:14.571Z,46.20
2018-01-14T12:41:42.604Z,45.00
2018-01-14T12:44:10.668Z,44.60
2018-01-14T12:46:39.026Z,44.40
2018-01-14T12:49:07.057Z,45.50
2018-01-14T12:51:36.692Z,46.20
2018-01-14T12:54:05.508Z,46.50
2018-01-14T12:56:33.536Z,46.50
2018-01-14T12:59:01.586Z,45.60
2018-01-14T13:01:29.628Z,47.90
2018-01-14T13:03:57.673Z,48.10
2018-01-14T13:06:25.712Z,49.10
2018-01-14T13:08:54.533Z,48.70
2018-01-14T13:11:22.579Z,48.70
2018-01-14T13:13:50.616Z,50.00
2018-01-14T13:16:18.651Z,50.40
2018-01-14T13:18:47.901Z,50.20
2018-01-14T13:21:15.936Z,50.20
2018-01-14T13:23:43.983Z,50.10
2018-01-14T13:26:12.028Z,50.70
2018-01-14T13:28:40.844Z,51.70
2018-01-14T13:31:08.885Z,51.70
2018-01-14T13:33:36.938Z,52.30
2018-01-14T13:36:04.990Z,52.90
2018-01-14T13:38:33.014Z,53.10
2018-01-14T13:41:01.065Z,52.50
2018-01-14T13:43:29.103Z,52.30
2018-01-14T13:45:57.136Z,52.80
2018-01-14T13:48:25.197Z,52.40
2018-01-14T13:50:54.011Z,52.40
2018-01-14T13:53:22.036Z,52.40
2018-01-14T13:55:50.097Z,53.10
2018-01-14T13:58:18.144Z,52.20
2018-01-14T14:00:46.973Z,52.80
2018-01-14T14:03:15.021Z,52.60
2018-01-14T14:05:43.054Z,52.90
2018-01-14T14:08:11.097Z,53.60
2018-01-14T14:10:39.926Z,51.80
2018-01-14T14:13:07.978Z,51.90
2018-01-14T14:15:36.792Z,52.60
2018-01-14T14:18:05.614Z,52.20
2018-01-14T14:20:33.644Z,52.10
2018-01-14T14:23:01.698Z,52.90
2018-01-14T14:25:29.747Z,53.20
2018-01-14T14:27:58.548Z,52.10
2018-01-14T14:30:27.369Z,51.80
2018-01-14T14:32:55.411Z,51.90
2018-01-14T14:35:23.448Z,52.50
2018-01-14T14:37:51.488Z,52.20
2018-01-14T14:40:21.164Z,53.00
2018-01-14T14:42:49.195Z,52.90
2018-01-14T14:45:18.025Z,52.60
2018-01-14T14:47:46.074Z,52.60
2018-01-14T14:50:14.096Z,53.50
2018-01-14T14:52:42.144Z,53.50
2018-01-14T14:55:10.956Z,53.80
2018-01-14T14:57:40.372Z,53.80
2018-01-14T15:00:09.176Z,54.40
2018-01-14T15:02:37.236Z,54.40
2018-01-14T15:05:05.268Z,54.40
2018-01-14T15:07:33.305Z,54.50
2018-01-14T15:10:01.461Z,55.00
2018-01-14T15:12:29.629Z,55.00
2018-01-14T15:14:57.801Z,55.00
2018-01-14T15:17:25.852Z,54.90
2018-01-14T15:19:54.048Z,54.60
2018-01-14T15:22:22.877Z,55.00
2018-01-14T15:24:50.931Z,55.00
2018-01-14T15:27:19.723Z,55.40
2018-01-14T15:29:47.808Z,55.40
2018-01-14T15:32:15.866Z,55.50
2018-01-14T15:34:43.885Z,55.60
2018-01-14T15:37:12.700Z,55.30
2018-01-14T15:39:40.752Z,55.10
2018-01-14T15:42:08.811Z,55.00
2018-01-14T15:44:36.851Z,55.40
2018-01-14T15:47:05.669Z,55.40
2018-01-14T15:49:33.717Z,55.30
2018-01-14T15:52:01.736Z,55.50
2018-01-14T15:54:29.835Z,55.60
2018-01-14T15:56:57.903Z,55.50
2018-01-14T15:59:25.924Z,55.60
2018-01-14T16:01:53.963Z,56.70
2018-01-14T16:04:22.028Z,56.30
2018-01-14T16:06:50.816Z,56.90
2018-01-14T16:09:18.878Z,56.80
2018-01-14T16:11:46.921Z,57.00
2018-01-14T16:14:14.956Z,56.80
2018-01-14T16:16:43.008Z,57.10
2018-01-14T16:19:11.077Z,56.80
2018-01-14T16:21:39.116Z,56.80
2018-01-14T16:24:07.169Z,58.10
2018-01-14T16:26:35.221Z,58.60
2018-01-14T16:29:03.256Z,59.30
2018-01-14T16:31:31.311Z,60.00
2018-01-14T16:33:59.332Z,60.10
2018-01-14T16:36:27.396Z,60.70
2018-01-14T16:38:55.474Z,61.30
2018-01-14T16:41:23.522Z,61.40
2018-01-14T16:43:51.573Z,61.20
2018-01-14T16:46:19.615Z,62.10
2018-01-14T16:48:47.652Z,61.30
2018-01-14T16:51:16.464Z,61.40
2018-01-14T16:53:45.261Z,61.60
2018-01-14T16:56:14.187Z,61.40
2018-01-14T16:58:42.252Z,61.40
2018-01-14T17:01:10.316Z,65.40
2018-01-14T17:03:38.364Z,65.40
2018-01-14T17:06:06.408Z,62.60
2018-01-14T17:08:34.448Z,62.80
2018-01-14T17:11:02.498Z,63.20
2018-01-14T17:13:30.544Z,63.40
2018-01-14T17:15:59.337Z,65.20
2018-01-14T17:18:27.395Z,65.20
2018-01-14T17:20:55.442Z,64.00
2018-01-14T17:23:23.469Z,65.30
2018-01-14T17:25:51.529Z,64.70
2018-01-14T17:28:19.560Z,64.30
2018-01-14T17:30:48.372Z,64.80
2018-01-14T17:33:17.210Z,65.00
2018-01-14T17:35:45.256Z,64.90
2018-01-14T17:38:14.069Z,65.00
2018-01-14T17:40:42.092Z,64.80
2018-01-14T17:43:10.226Z,64.90
2018-01-14T17:45:39.025Z,65.30
2018-01-14T17:48:07.084Z,65.30
2018-01-14T17:50:35.120Z,65.40
2018-01-14T17:53:03.164Z,65.60
2018-01-14T17:55:31.238Z,65.80
2018-01-14T17:58:08.981Z,66.40
2018-01-14T18:00:37.802Z,66.90
2018-01-14T18:03:08.200Z,67.50
2018-01-14T18:05:36.240Z,66.40
2018-01-14T18:08:04.268Z,66.90
2018-01-14T18:10:32.320Z,66.90
2018-01-14T18:13:00.357Z,66.70
2018-01-14T18:15:29.160Z,80.00
2018-01-14T18:17:57.234Z,80.00
2018-01-14T18:20:26.040Z,67.80
2018-01-14T18:22:54.842Z,68.80
2018-01-14T18:25:23.670Z,68.50
2018-01-14T18:27:52.467Z,67.30
2018-01-14T18:30:20.489Z,67.30
2018-01-14T18:32:48.536Z,67.80
2018-01-14T18:35:16.592Z,67.80
2018-01-14T18:37:45.384Z,68.20
2018-01-14T18:40:14.204Z,68.90
2018-01-14T18:42:42.996Z,69.30
2018-01-14T18:45:11.815Z,69.10
2018-01-14T18:47:39.894Z,69.10
2018-01-14T18:50:07.940Z,69.60
2018-01-14T18:52:35.964Z,69.60
2018-01-14T18:55:04.045Z,69.90
2018-01-14T18:57:32.109Z,70.10
2018-01-14T19:00:00.920Z,70.50
2018-01-14T19:02:29.742Z,71.30
2018-01-14T19:04:57.787Z,71.20
2018-01-14T19:07:25.845Z,71.90
2018-01-14T19:09:53.883Z,72.00
2018-01-14T19:12:21.934Z,71.90
2018-01-14T19:14:50.001Z,71.70
2018-01-14T19:17:18.045Z,72.10
2018-01-14T19:19:46.095Z,72.80
2018-01-14T19:22:14.900Z,72.90
2018-01-14T19:24:43.716Z,72.80
2018-01-14T19:27:11.792Z,72.80
2018-01-14T19:29:39.860Z,72.80
2018-01-14T19:32:07.921Z,72.70
2018-01-14T19:34:36.005Z,72.80
2018-01-14T19:37:04.073Z,72.80
2018-01-14T19:39:32.113Z,72.70
2018-01-14T19:42:00.932Z,72.80
2018-01-14T19:44:28.990Z,72.80
2018-01-14T19:46:57.093Z,72.80
2018-01-14T19:49:25.936Z,73.90
2018-01-14T19:51:54.029Z,73.70
2018-01-14T19:54:22.094Z,73.60
2018-01-14T19:56:51.296Z,73.50
2018-01-14T19:59:19.360Z,73.50
2018-01-14T20:01:48.745Z,73.90
2018-01-14T20:04:16.833Z,73.80
2018-01-14T20:06:44.888Z,74.00
2018-01-14T20:09:12.987Z,74.30
2018-01-14T20:11:41.135Z,74.90
2018-01-14T20:14:09.207Z,75.30
2018-01-14T20:16:37.308Z,75.90
2018-01-14T20:19:05.360Z,75.70
2018-01-14T20:21:34.168Z,75.60
2018-01-14T20:24:02.485Z,75.50
2018-01-14T20:26:30.553Z,75.40
2018-01-14T20:28:58.621Z,75.30
2018-01-14T20:31:26.708Z,76.00
2018-01-14T20:33:55.547Z,75.80
2018-01-14T20:36:23.593Z,75.80
2018-01-14T20:38:52.412Z,76.70
2018-01-14T20:41:21.909Z,76.70
2018-01-14T20:43:50.736Z,77.30
2018-01-14T20:46:18.792Z,77.20
2018-01-14T20:48:46.845Z,79.50
2018-01-14T20:51:14.959Z,78.70
2018-01-14T20:53:43.780Z,77.80
2018-01-14T20:56:11.896Z,77.60
2018-01-14T20:58:39.988Z,77.30
2018-01-14T21:01:08.052Z,77.10
2018-01-14T21:03:36.096Z,77.00
2018-01-14T21:06:04.941Z,77.70
2018-01-14T21:08:32.989Z,77.50
2018-01-14T21:11:01.813Z,78.00
2018-01-14T21:13:29.886Z,77.90
2018-01-14T21:15:57.928Z,77.80
2018-01-14T21:18:26.076Z,78.30
2018-01-14T21:20:54.122Z,77.80
2018-01-14T21:23:24.082Z,77.30
2018-01-14T21:25:52.359Z,77.20
2018-01-14T21:28:21.088Z,77.20
2018-01-14T21:30:49.185Z,77.40
2018-01-14T21:33:17.296Z,77.80
2018-01-14T21:35:46.595Z,78.10
2018-01-14T21:38:16.532Z,78.20
2018-01-14T21:40:44.849Z,78.00
2018-01-14T21:43:13.673Z,78.90
2018-01-14T21:45:41.736Z,78.70
2018-01-14T21:48:10.544Z,79.20
2018-01-14T21:50:38.629Z,79.10
2018-01-14T21:53:06.684Z,79.10
2018-01-14T21:55:34.769Z,78.90
2018-01-14T21:58:02.803Z,78.50
2018-01-14T22:00:30.864Z,78.00
2018-01-14T22:02:58.943Z,77.40
2018-01-14T22:05:26.976Z,77.60
2018-01-14T22:07:55.026Z,78.10
2018-01-14T22:10:23.073Z,78.50
2018-01-14T22:12:51.136Z,79.00
2018-01-14T22:15:19.183Z,79.50
2018-01-14T22:17:47.259Z,79.50
2018-01-14T22:20:15.312Z,79.90
2018-01-14T22:22:43.357Z,80.20
2018-01-14T22:25:11.438Z,80.40
2018-01-14T22:27:39.456Z,79.70
2018-01-14T22:30:07.512Z,79.60
2018-01-14T22:32:35.561Z,80.90
2018-01-14T22:35:04.374Z,80.10
2018-01-14T22:37:32.405Z,80.10
2018-01-14T22:40:00.492Z,80.10
2018-01-14T22:42:28.534Z,80.10
2018-01-14T22:44:56.587Z,80.10
2018-01-14T22:47:25.421Z,80.20
2018-01-14T22:49:53.464Z,80.10
2018-01-14T22:52:22.281Z,80.10
2018-01-14T22:54:50.321Z,80.10
2018-01-14T22:57:18.382Z,80.10
2018-01-14T22:59:46.432Z,80.10
2018-01-14T23:02:14.472Z,80.10
2018-01-14T23:04:42.560Z,80.20
2018-01-14T23:07:10.596Z,79.40
2018-01-14T23:09:38.653Z,79.00
2018-01-14T23:12:07.459Z,79.70
2018-01-14T23:14:35.519Z,79.50
2018-01-14T23:17:03.592Z,79.90
2018-01-14T23:19:43.423Z,79.80
2018-01-14T23:22:11.485Z,79.80
2018-01-14T23:24:39.528Z,80.10
2018-01-14T23:27:07.588Z,80.60
2018-01-14T23:29:35.644Z,80.70
2018-01-14T23:32:03.708Z,80.20
2018-01-14T23:34:32.532Z,79.90
2018-01-14T23:37:00.577Z,79.80
2018-01-14T23:39:28.620Z,79.80
2018-01-14T23:41:56.660Z,80.60
2018-01-14T23:44:25.468Z,79.80
2018-01-14T23:46:53.531Z,79.70
2018-01-14T23:49:22.328Z,80.00
2018-01-14T23:51:50.389Z,80.00
2018-01-14T23:54:18.420Z,79.80
2018-01-14T23:56:46.472Z,79.70
2018-01-14T23:59:14.531Z,79.70
